sensor_id;sensor_type;location;lat;lon;timestamp;P1;durP1;ratioP1;P2;durP2;ratioP2
50519;SDS011;36468;44.098;3.078;2022-09-09T00:00:14;7.80;;;1.00;;
50519;SDS011;36468;44.098;3.078;2022-09-09T00:02:45;7.38;;;1.10;;
50519;SDS011;36468;44.098;3.078;2022-09-09T00:07:52;7.22;;;1.25;;
50519;SDS011;36468;44.098;3.078;2022-09-09T00:10:21;5.75;;;1.30;;
50519;SDS011;36468;44.098;3.078;2022-09-09T00:15:22;3.38;;;1.00;;
50519;SDS011;36468;44.098;3.078;2022-09-09T00:17:59;6.65;;;1.00;;
50519;SDS011;36468;44.098;3.078;2022-09-09T00:20:30;3.67;;;0.80;;
50519;SDS011;36468;44.098;3.078;2022-09-09T00:25:33;4.28;;;0.90;;
50519;SDS011;36468;44.098;3.078;2022-09-09T00:28:01;6.97;;;1.60;;
50519;SDS011;36468;44.098;3.078;2022-09-09T00:30:30;6.43;;;1.80;;
50519;SDS011;36468;44.098;3.078;2022-09-09T00:33:01;4.40;;;1.08;;
50519;SDS011;36468;44.098;3.078;2022-09-09T00:35:34;5.93;;;2.08;;
50519;SDS011;36468;44.098;3.078;2022-09-09T00:41:01;8.05;;;1.50;;
50519;SDS011;36468;44.098;3.078;2022-09-09T00:43:29;3.80;;;1.15;;
50519;SDS011;36468;44.098;3.078;2022-09-09T00:48:22;5.57;;;1.55;;
50519;SDS011;36468;44.098;3.078;2022-09-09T00:50:55;6.03;;;1.10;;
50519;SDS011;36468;44.098;3.078;2022-09-09T00:58:38;4.25;;;1.10;;
50519;SDS011;36468;44.098;3.078;2022-09-09T01:01:04;9.60;;;1.35;;
50519;SDS011;36468;44.098;3.078;2022-09-09T01:03:37;5.47;;;1.08;;
50519;SDS011;36468;44.098;3.078;2022-09-09T01:11:15;4.72;;;0.90;;
50519;SDS011;36468;44.098;3.078;2022-09-09T01:13:45;6.57;;;0.98;;
50519;SDS011;36468;44.098;3.078;2022-09-09T01:16:12;4.25;;;1.00;;
50519;SDS011;36468;44.098;3.078;2022-09-09T01:18:44;8.52;;;1.00;;
50519;SDS011;36468;44.098;3.078;2022-09-09T01:24:08;2.88;;;0.90;;
50519;SDS011;36468;44.098;3.078;2022-09-09T01:26:42;14.63;;;1.15;;
50519;SDS011;36468;44.098;3.078;2022-09-09T01:29:11;2.78;;;0.93;;
50519;SDS011;36468;44.098;3.078;2022-09-09T01:34:13;4.35;;;0.95;;
50519;SDS011;36468;44.098;3.078;2022-09-09T01:36:44;3.28;;;0.80;;
50519;SDS011;36468;44.098;3.078;2022-09-09T01:39:11;5.38;;;1.10;;
50519;SDS011;36468;44.098;3.078;2022-09-09T01:41:38;7.60;;;1.40;;
50519;SDS011;36468;44.098;3.078;2022-09-09T01:44:05;5.80;;;1.10;;
50519;SDS011;36468;44.098;3.078;2022-09-09T01:46:31;3.85;;;1.10;;
50519;SDS011;36468;44.098;3.078;2022-09-09T01:48:57;6.57;;;0.98;;
50519;SDS011;36468;44.098;3.078;2022-09-09T01:51:24;6.85;;;0.90;;
50519;SDS011;36468;44.098;3.078;2022-09-09T01:53:50;6.38;;;0.88;;
50519;SDS011;36468;44.098;3.078;2022-09-09T01:56:40;2.50;;;1.00;;
50519;SDS011;36468;44.098;3.078;2022-09-09T01:59:24;3.33;;;1.10;;
50519;SDS011;36468;44.098;3.078;2022-09-09T02:06:55;5.68;;;0.90;;
50519;SDS011;36468;44.098;3.078;2022-09-09T02:09:23;8.15;;;1.10;;
50519;SDS011;36468;44.098;3.078;2022-09-09T02:11:49;8.32;;;0.98;;
50519;SDS011;36468;44.098;3.078;2022-09-09T02:14:19;3.55;;;1.00;;
50519;SDS011;36468;44.098;3.078;2022-09-09T02:16:50;9.80;;;1.35;;
50519;SDS011;36468;44.098;3.078;2022-09-09T02:19:19;3.90;;;0.98;;
50519;SDS011;36468;44.098;3.078;2022-09-09T02:21:50;4.75;;;1.00;;
50519;SDS011;36468;44.098;3.078;2022-09-09T02:24:18;7.25;;;1.10;;
50519;SDS011;36468;44.098;3.078;2022-09-09T02:26:44;5.82;;;1.00;;
50519;SDS011;36468;44.098;3.078;2022-09-09T02:29:16;4.45;;;0.93;;
50519;SDS011;36468;44.098;3.078;2022-09-09T02:31:43;5.28;;;1.02;;
50519;SDS011;36468;44.098;3.078;2022-09-09T02:34:11;5.90;;;1.17;;
50519;SDS011;36468;44.098;3.078;2022-09-09T02:36:38;5.03;;;1.00;;
50519;SDS011;36468;44.098;3.078;2022-09-09T02:39:06;5.60;;;1.17;;
50519;SDS011;36468;44.098;3.078;2022-09-09T02:41:33;6.50;;;1.23;;
50519;SDS011;36468;44.098;3.078;2022-09-09T02:44:00;5.35;;;1.02;;
50519;SDS011;36468;44.098;3.078;2022-09-09T02:49:04;7.95;;;1.23;;
50519;SDS011;36468;44.098;3.078;2022-09-09T02:54:29;12.45;;;1.33;;
50519;SDS011;36468;44.098;3.078;2022-09-09T02:57:17;6.03;;;0.80;;
50519;SDS011;36468;44.098;3.078;2022-09-09T02:59:44;6.28;;;1.40;;
50519;SDS011;36468;44.098;3.078;2022-09-09T03:02:11;3.58;;;1.30;;
50519;SDS011;36468;44.098;3.078;2022-09-09T03:04:38;4.97;;;1.20;;
50519;SDS011;36468;44.098;3.078;2022-09-09T03:07:04;2.75;;;0.90;;
50519;SDS011;36468;44.098;3.078;2022-09-09T03:09:30;7.82;;;1.10;;
50519;SDS011;36468;44.098;3.078;2022-09-09T03:11:59;9.50;;;1.15;;
50519;SDS011;36468;44.098;3.078;2022-09-09T03:14:25;4.95;;;0.93;;
50519;SDS011;36468;44.098;3.078;2022-09-09T03:16:52;3.25;;;0.88;;
50519;SDS011;36468;44.098;3.078;2022-09-09T03:19:18;3.20;;;1.00;;
50519;SDS011;36468;44.098;3.078;2022-09-09T03:21:45;5.57;;;1.13;;
50519;SDS011;36468;44.098;3.078;2022-09-09T03:24:12;5.90;;;0.90;;
50519;SDS011;36468;44.098;3.078;2022-09-09T03:26:39;7.88;;;1.33;;
50519;SDS011;36468;44.098;3.078;2022-09-09T03:29:05;4.75;;;1.30;;
50519;SDS011;36468;44.098;3.078;2022-09-09T03:31:32;8.63;;;1.00;;
50519;SDS011;36468;44.098;3.078;2022-09-09T03:33:58;4.43;;;1.15;;
50519;SDS011;36468;44.098;3.078;2022-09-09T03:36:25;4.20;;;1.20;;
50519;SDS011;36468;44.098;3.078;2022-09-09T03:38:51;5.28;;;1.00;;
50519;SDS011;36468;44.098;3.078;2022-09-09T03:41:19;5.97;;;0.98;;
50519;SDS011;36468;44.098;3.078;2022-09-09T03:43:46;4.80;;;1.02;;
50519;SDS011;36468;44.098;3.078;2022-09-09T03:46:12;5.65;;;0.98;;
50519;SDS011;36468;44.098;3.078;2022-09-09T03:48:38;3.80;;;1.00;;
50519;SDS011;36468;44.098;3.078;2022-09-09T03:51:04;5.28;;;0.90;;
50519;SDS011;36468;44.098;3.078;2022-09-09T03:53:30;3.78;;;1.10;;
50519;SDS011;36468;44.098;3.078;2022-09-09T03:55:57;8.13;;;0.98;;
50519;SDS011;36468;44.098;3.078;2022-09-09T03:58:25;7.25;;;0.77;;
50519;SDS011;36468;44.098;3.078;2022-09-09T04:03:20;5.30;;;1.10;;
50519;SDS011;36468;44.098;3.078;2022-09-09T04:05:48;11.95;;;1.85;;
50519;SDS011;36468;44.098;3.078;2022-09-09T04:08:14;8.32;;;1.10;;
50519;SDS011;36468;44.098;3.078;2022-09-09T04:10:40;4.13;;;1.00;;
50519;SDS011;36468;44.098;3.078;2022-09-09T04:13:06;9.90;;;1.05;;
50519;SDS011;36468;44.098;3.078;2022-09-09T04:15:33;5.72;;;0.80;;
50519;SDS011;36468;44.098;3.078;2022-09-09T04:18:00;8.10;;;1.20;;
50519;SDS011;36468;44.098;3.078;2022-09-09T04:20:26;4.43;;;1.00;;
50519;SDS011;36468;44.098;3.078;2022-09-09T04:22:52;4.68;;;1.00;;
50519;SDS011;36468;44.098;3.078;2022-09-09T04:25:18;8.00;;;1.35;;
50519;SDS011;36468;44.098;3.078;2022-09-09T04:27:44;5.22;;;1.00;;
50519;SDS011;36468;44.098;3.078;2022-09-09T04:30:11;6.63;;;1.02;;
50519;SDS011;36468;44.098;3.078;2022-09-09T04:32:37;3.67;;;0.95;;
50519;SDS011;36468;44.098;3.078;2022-09-09T04:35:03;7.93;;;1.25;;
50519;SDS011;36468;44.098;3.078;2022-09-09T04:37:29;4.43;;;1.15;;
50519;SDS011;36468;44.098;3.078;2022-09-09T04:39:55;4.22;;;1.10;;
50519;SDS011;36468;44.098;3.078;2022-09-09T04:42:21;6.00;;;1.50;;
50519;SDS011;36468;44.098;3.078;2022-09-09T04:44:47;6.22;;;1.38;;
50519;SDS011;36468;44.098;3.078;2022-09-09T04:47:13;5.63;;;1.13;;
50519;SDS011;36468;44.098;3.078;2022-09-09T04:49:39;8.68;;;1.60;;
50519;SDS011;36468;44.098;3.078;2022-09-09T04:52:06;5.93;;;1.25;;
50519;SDS011;36468;44.098;3.078;2022-09-09T04:54:32;7.47;;;1.20;;
50519;SDS011;36468;44.098;3.078;2022-09-09T04:56:58;8.85;;;1.23;;
50519;SDS011;36468;44.098;3.078;2022-09-09T04:59:24;5.88;;;1.27;;
50519;SDS011;36468;44.098;3.078;2022-09-09T05:01:50;6.75;;;1.30;;
50519;SDS011;36468;44.098;3.078;2022-09-09T05:04:16;8.00;;;1.30;;
50519;SDS011;36468;44.098;3.078;2022-09-09T05:06:43;6.18;;;1.10;;
50519;SDS011;36468;44.098;3.078;2022-09-09T05:09:10;4.22;;;1.23;;
50519;SDS011;36468;44.098;3.078;2022-09-09T05:11:36;5.28;;;1.42;;
50519;SDS011;36468;44.098;3.078;2022-09-09T05:14:03;5.57;;;1.58;;
50519;SDS011;36468;44.098;3.078;2022-09-09T05:16:29;5.10;;;1.23;;
50519;SDS011;36468;44.098;3.078;2022-09-09T05:18:56;5.80;;;1.40;;
50519;SDS011;36468;44.098;3.078;2022-09-09T05:21:23;12.20;;;1.45;;
50519;SDS011;36468;44.098;3.078;2022-09-09T05:23:51;6.85;;;1.38;;
50519;SDS011;36468;44.098;3.078;2022-09-09T05:26:18;4.75;;;1.20;;
50519;SDS011;36468;44.098;3.078;2022-09-09T05:28:45;7.43;;;1.42;;
50519;SDS011;36468;44.098;3.078;2022-09-09T05:31:12;7.43;;;1.52;;
50519;SDS011;36468;44.098;3.078;2022-09-09T05:33:38;6.32;;;1.55;;
50519;SDS011;36468;44.098;3.078;2022-09-09T05:36:15;9.60;;;2.08;;
50519;SDS011;36468;44.098;3.078;2022-09-09T05:38:41;9.98;;;2.83;;
50519;SDS011;36468;44.098;3.078;2022-09-09T05:41:08;14.80;;;3.58;;
50519;SDS011;36468;44.098;3.078;2022-09-09T05:43:36;23.13;;;4.25;;
50519;SDS011;36468;44.098;3.078;2022-09-09T05:46:03;11.95;;;3.47;;
50519;SDS011;36468;44.098;3.078;2022-09-09T05:48:33;17.00;;;4.53;;
50519;SDS011;36468;44.098;3.078;2022-09-09T05:50:59;19.50;;;5.07;;
50519;SDS011;36468;44.098;3.078;2022-09-09T05:53:26;18.90;;;5.40;;
50519;SDS011;36468;44.098;3.078;2022-09-09T05:55:59;14.20;;;6.45;;
50519;SDS011;36468;44.098;3.078;2022-09-09T05:58:25;16.05;;;4.80;;
50519;SDS011;36468;44.098;3.078;2022-09-09T06:00:51;12.70;;;5.05;;
50519;SDS011;36468;44.098;3.078;2022-09-09T06:03:17;14.80;;;4.97;;
50519;SDS011;36468;44.098;3.078;2022-09-09T06:05:43;18.83;;;5.95;;
50519;SDS011;36468;44.098;3.078;2022-09-09T06:08:09;15.18;;;5.43;;
50519;SDS011;36468;44.098;3.078;2022-09-09T06:10:35;16.52;;;5.40;;
50519;SDS011;36468;44.098;3.078;2022-09-09T06:13:01;27.90;;;7.03;;
50519;SDS011;36468;44.098;3.078;2022-09-09T06:15:27;25.65;;;6.90;;
50519;SDS011;36468;44.098;3.078;2022-09-09T06:17:55;16.67;;;6.13;;
50519;SDS011;36468;44.098;3.078;2022-09-09T06:20:21;16.63;;;5.80;;
50519;SDS011;36468;44.098;3.078;2022-09-09T06:22:47;53.80;;;7.88;;
50519;SDS011;36468;44.098;3.078;2022-09-09T06:25:13;32.35;;;6.72;;
50519;SDS011;36468;44.098;3.078;2022-09-09T06:27:39;17.00;;;7.45;;
50519;SDS011;36468;44.098;3.078;2022-09-09T06:30:07;21.00;;;6.63;;
50519;SDS011;36468;44.098;3.078;2022-09-09T06:32:33;17.85;;;6.90;;
50519;SDS011;36468;44.098;3.078;2022-09-09T06:35:01;21.35;;;7.40;;
50519;SDS011;36468;44.098;3.078;2022-09-09T06:37:27;24.00;;;8.25;;
50519;SDS011;36468;44.098;3.078;2022-09-09T06:39:53;19.88;;;7.20;;
50519;SDS011;36468;44.098;3.078;2022-09-09T06:42:19;16.67;;;7.32;;
50519;SDS011;36468;44.098;3.078;2022-09-09T06:44:45;21.15;;;7.70;;
50519;SDS011;36468;44.098;3.078;2022-09-09T06:47:12;12.13;;;6.20;;
50519;SDS011;36468;44.098;3.078;2022-09-09T06:49:38;21.10;;;6.50;;
50519;SDS011;36468;44.098;3.078;2022-09-09T06:52:04;14.80;;;5.88;;
50519;SDS011;36468;44.098;3.078;2022-09-09T06:54:30;17.33;;;5.40;;
50519;SDS011;36468;44.098;3.078;2022-09-09T06:56:56;16.13;;;5.63;;
50519;SDS011;36468;44.098;3.078;2022-09-09T06:59:22;11.48;;;3.70;;
50519;SDS011;36468;44.098;3.078;2022-09-09T07:01:48;10.60;;;2.75;;
50519;SDS011;36468;44.098;3.078;2022-09-09T07:04:16;8.32;;;3.13;;
50519;SDS011;36468;44.098;3.078;2022-09-09T07:06:44;12.73;;;2.90;;
50519;SDS011;36468;44.098;3.078;2022-09-09T07:09:11;10.57;;;3.20;;
50519;SDS011;36468;44.098;3.078;2022-09-09T07:11:38;5.75;;;2.60;;
50519;SDS011;36468;44.098;3.078;2022-09-09T07:14:06;10.80;;;2.75;;
50519;SDS011;36468;44.098;3.078;2022-09-09T07:16:32;9.20;;;3.45;;
50519;SDS011;36468;44.098;3.078;2022-09-09T07:19:02;9.60;;;3.70;;
50519;SDS011;36468;44.098;3.078;2022-09-09T07:21:28;51.28;;;7.03;;
50519;SDS011;36468;44.098;3.078;2022-09-09T07:23:55;11.48;;;2.22;;
50519;SDS011;36468;44.098;3.078;2022-09-09T07:26:22;11.93;;;2.50;;
50519;SDS011;36468;44.098;3.078;2022-09-09T07:28:48;7.25;;;2.08;;
50519;SDS011;36468;44.098;3.078;2022-09-09T07:31:16;5.70;;;1.27;;
50519;SDS011;36468;44.098;3.078;2022-09-09T07:33:42;10.52;;;1.30;;
50519;SDS011;36468;44.098;3.078;2022-09-09T07:36:10;5.78;;;1.10;;
50519;SDS011;36468;44.098;3.078;2022-09-09T07:38:41;7.78;;;1.17;;
50519;SDS011;36468;44.098;3.078;2022-09-09T07:41:10;6.85;;;1.42;;
50519;SDS011;36468;44.098;3.078;2022-09-09T07:43:41;6.32;;;1.17;;
50519;SDS011;36468;44.098;3.078;2022-09-09T07:46:07;5.25;;;1.08;;
50519;SDS011;36468;44.098;3.078;2022-09-09T07:48:34;4.13;;;1.10;;
50519;SDS011;36468;44.098;3.078;2022-09-09T07:51:19;3.25;;;1.08;;
50519;SDS011;36468;44.098;3.078;2022-09-09T07:53:47;6.40;;;1.63;;
50519;SDS011;36468;44.098;3.078;2022-09-09T07:56:14;5.20;;;1.30;;
50519;SDS011;36468;44.098;3.078;2022-09-09T07:58:42;5.75;;;1.02;;
50519;SDS011;36468;44.098;3.078;2022-09-09T08:01:09;3.33;;;0.73;;
50519;SDS011;36468;44.098;3.078;2022-09-09T08:03:36;4.00;;;0.70;;
50519;SDS011;36468;44.098;3.078;2022-09-09T08:06:07;3.88;;;0.93;;
50519;SDS011;36468;44.098;3.078;2022-09-09T08:08:34;4.10;;;1.10;;
50519;SDS011;36468;44.098;3.078;2022-09-09T08:11:10;3.88;;;0.98;;
50519;SDS011;36468;44.098;3.078;2022-09-09T08:13:37;2.33;;;0.75;;
50519;SDS011;36468;44.098;3.078;2022-09-09T08:16:07;4.75;;;0.60;;
50519;SDS011;36468;44.098;3.078;2022-09-09T08:18:33;2.65;;;0.60;;
50519;SDS011;36468;44.098;3.078;2022-09-09T08:21:10;8.90;;;1.00;;
50519;SDS011;36468;44.098;3.078;2022-09-09T08:23:38;2.03;;;0.60;;
50519;SDS011;36468;44.098;3.078;2022-09-09T08:26:09;4.40;;;0.70;;
50519;SDS011;36468;44.098;3.078;2022-09-09T08:28:35;3.20;;;0.70;;
50519;SDS011;36468;44.098;3.078;2022-09-09T08:31:05;2.85;;;0.60;;
50519;SDS011;36468;44.098;3.078;2022-09-09T08:33:31;3.95;;;0.57;;
50519;SDS011;36468;44.098;3.078;2022-09-09T08:35:58;4.40;;;1.30;;
50519;SDS011;36468;44.098;3.078;2022-09-09T08:38:24;3.45;;;0.60;;
50519;SDS011;36468;44.098;3.078;2022-09-09T08:40:50;1.88;;;0.30;;
50519;SDS011;36468;44.098;3.078;2022-09-09T08:43:19;0.90;;;0.45;;
50519;SDS011;36468;44.098;3.078;2022-09-09T08:46:09;1.38;;;0.50;;
50519;SDS011;36468;44.098;3.078;2022-09-09T08:51:18;1.40;;;0.50;;
50519;SDS011;36468;44.098;3.078;2022-09-09T08:53:45;6.35;;;0.40;;
50519;SDS011;36468;44.098;3.078;2022-09-09T08:56:33;2.92;;;0.52;;
50519;SDS011;36468;44.098;3.078;2022-09-09T08:58:59;1.55;;;0.50;;
50519;SDS011;36468;44.098;3.078;2022-09-09T09:01:31;4.75;;;0.40;;
50519;SDS011;36468;44.098;3.078;2022-09-09T09:11:24;3.90;;;0.75;;
50519;SDS011;36468;44.098;3.078;2022-09-09T09:18:42;2.97;;;0.60;;
50519;SDS011;36468;44.098;3.078;2022-09-09T09:21:11;0.60;;;0.40;;
50519;SDS011;36468;44.098;3.078;2022-09-09T09:23:42;2.25;;;0.65;;
50519;SDS011;36468;44.098;3.078;2022-09-09T09:26:09;2.42;;;0.50;;
50519;SDS011;36468;44.098;3.078;2022-09-09T09:28:38;4.35;;;0.40;;
50519;SDS011;36468;44.098;3.078;2022-09-09T09:35:57;6.00;;;0.85;;
50519;SDS011;36468;44.098;3.078;2022-09-09T09:38:25;2.22;;;0.30;;
50519;SDS011;36468;44.098;3.078;2022-09-09T09:40:53;0.98;;;0.40;;
50519;SDS011;36468;44.098;3.078;2022-09-09T09:43:26;3.15;;;0.40;;
50519;SDS011;36468;44.098;3.078;2022-09-09T09:45:53;2.15;;;0.60;;
50519;SDS011;36468;44.098;3.078;2022-09-09T09:48:20;1.45;;;0.40;;
50519;SDS011;36468;44.098;3.078;2022-09-09T09:50:52;1.83;;;0.50;;
50519;SDS011;36468;44.098;3.078;2022-09-09T09:53:24;1.95;;;0.40;;
50519;SDS011;36468;44.098;3.078;2022-09-09T09:55:55;2.50;;;0.50;;
50519;SDS011;36468;44.098;3.078;2022-09-09T09:58:21;4.95;;;0.40;;
50519;SDS011;36468;44.098;3.078;2022-09-09T10:00:48;3.05;;;0.38;;
50519;SDS011;36468;44.098;3.078;2022-09-09T10:03:23;1.15;;;0.30;;
50519;SDS011;36468;44.098;3.078;2022-09-09T10:05:49;1.92;;;0.60;;
50519;SDS011;36468;44.098;3.078;2022-09-09T10:08:16;1.85;;;0.60;;
50519;SDS011;36468;44.098;3.078;2022-09-09T10:33:37;5.53;;;2.22;;
50519;SDS011;36468;44.098;3.078;2022-09-09T10:36:17;4.85;;;0.95;;
50519;SDS011;36468;44.098;3.078;2022-09-09T10:38:48;4.57;;;1.08;;
